sensor_id;sensor_type;location;lat;lon;timestamp;pressure;altitude;pressure_sealevel;temperature;humidity
43934;BME280;59081;42.706;23.306;2023-01-30T00:00:28;95494.63;;;-1.78;93.76
43934;BME280;59081;42.706;23.306;2023-01-30T00:02:54;95503.41;;;-1.81;93.23
43934;BME280;59081;42.706;23.306;2023-01-30T00:05:19;95409.75;;;-2.43;94.02
43934;BME280;59081;42.706;23.306;2023-01-30T00:07:48;95295.16;;;-3.28;94.88
43934;BME280;59081;42.706;23.306;2023-01-30T00:10:13;95450.22;;;-2.27;94.74
43934;BME280;59081;42.706;23.306;2023-01-30T00:12:39;95480.94;;;-2.00;94.02
43934;BME280;59081;42.706;23.306;2023-01-30T00:15:05;95453.38;;;-2.09;93.75
43934;BME280;59081;42.706;23.306;2023-01-30T00:17:31;95528.06;;;-1.66;94.53
43934;BME280;59081;42.706;23.306;2023-01-30T00:19:56;95453.63;;;-2.15;94.53
43934;BME280;59081;42.706;23.306;2023-01-30T00:22:22;95484.25;;;-2.07;95.30
43934;BME280;59081;42.706;23.306;2023-01-30T00:24:48;95400.84;;;-2.75;96.09
43934;BME280;59081;42.706;23.306;2023-01-30T00:27:13;95485.22;;;-2.31;96.95
43934;BME280;59081;42.706;23.306;2023-01-30T00:29:39;95416.63;;;-2.46;95.14
43934;BME280;59081;42.706;23.306;2023-01-30T00:32:04;95493.22;;;-2.03;95.23
43934;BME280;59081;42.706;23.306;2023-01-30T00:34:30;95459.97;;;-2.38;96.11
43934;BME280;59081;42.706;23.306;2023-01-30T00:36:55;95370.66;;;-2.96;96.07
43934;BME280;59081;42.706;23.306;2023-01-30T00:39:21;95526.50;;;-1.99;95.95
43934;BME280;59081;42.706;23.306;2023-01-30T00:41:46;95380.84;;;-2.90;95.86
43934;BME280;59081;42.706;23.306;2023-01-30T00:44:30;95469.38;;;-2.17;96.20
43934;BME280;59081;42.706;23.306;2023-01-30T00:47:14;95520.56;;;-1.89;95.54
43934;BME280;59081;42.706;23.306;2023-01-30T00:49:40;95415.31;;;-2.67;95.67
43934;BME280;59081;42.706;23.306;2023-01-30T00:52:06;95362.56;;;-3.12;96.18
43934;BME280;59081;42.706;23.306;2023-01-30T00:54:32;95485.75;;;-2.25;96.71
43934;BME280;59081;42.706;23.306;2023-01-30T00:56:58;95505.50;;;-2.05;97.51
43934;BME280;59081;42.706;23.306;2023-01-30T00:59:26;95336.13;;;-3.06;97.17
43934;BME280;59081;42.706;23.306;2023-01-30T01:01:51;95400.84;;;-2.59;96.11
43934;BME280;59081;42.706;23.306;2023-01-30T01:04:18;95408.53;;;-2.61;96.28
43934;BME280;59081;42.706;23.306;2023-01-30T01:06:44;95513.78;;;-2.14;97.62
43934;BME280;59081;42.706;23.306;2023-01-30T01:09:09;95384.63;;;-3.06;99.19
43934;BME280;59081;42.706;23.306;2023-01-30T01:11:35;95416.19;;;-2.63;98.39
43934;BME280;59081;42.706;23.306;2023-01-30T01:14:02;95339.00;;;-2.99;97.02
43934;BME280;59081;42.706;23.306;2023-01-30T01:16:29;95492.28;;;-1.95;96.52
43934;BME280;59081;42.706;23.306;2023-01-30T01:18:55;95431.16;;;-2.50;97.69
43934;BME280;59081;42.706;23.306;2023-01-30T01:21:21;95423.22;;;-2.59;97.53
43934;BME280;59081;42.706;23.306;2023-01-30T01:23:51;95344.53;;;-3.24;98.63
43934;BME280;59081;42.706;23.306;2023-01-30T01:26:18;95446.66;;;-2.47;98.84
43934;BME280;59081;42.706;23.306;2023-01-30T01:28:44;95407.31;;;-2.48;97.96
43934;BME280;59081;42.706;23.306;2023-01-30T01:31:11;95391.81;;;-2.51;96.85
43934;BME280;59081;42.706;23.306;2023-01-30T01:33:39;95354.41;;;-2.84;97.21
43934;BME280;59081;42.706;23.306;2023-01-30T01:36:06;95384.66;;;-2.91;97.94
43934;BME280;59081;42.706;23.306;2023-01-30T01:38:31;95344.75;;;-3.01;97.85
43934;BME280;59081;42.706;23.306;2023-01-30T01:40:57;95355.34;;;-2.92;97.05
43934;BME280;59081;42.706;23.306;2023-01-30T01:46:25;95304.75;;;-3.14;96.12
43934;BME280;59081;42.706;23.306;2023-01-30T01:48:55;95309.25;;;-3.19;96.01
43934;BME280;59081;42.706;23.306;2023-01-30T01:51:46;95352.28;;;-3.06;97.51
43934;BME280;59081;42.706;23.306;2023-01-30T01:54:18;95420.69;;;-2.67;98.29
43934;BME280;59081;42.706;23.306;2023-01-30T01:56:48;95371.28;;;-2.87;97.73
43934;BME280;59081;42.706;23.306;2023-01-30T01:59:28;95480.84;;;-2.04;97.54
43934;BME280;59081;42.706;23.306;2023-01-30T02:01:58;95370.66;;;-2.96;96.88
43934;BME280;59081;42.706;23.306;2023-01-30T02:04:26;95301.94;;;-3.34;97.27
43934;BME280;59081;42.706;23.306;2023-01-30T02:07:11;95427.06;;;-2.60;96.90
43934;BME280;59081;42.706;23.306;2023-01-30T02:09:37;95424.63;;;-2.65;97.84
43934;BME280;59081;42.706;23.306;2023-01-30T02:12:03;95356.91;;;-2.91;97.17
43934;BME280;59081;42.706;23.306;2023-01-30T02:14:32;95336.75;;;-2.97;96.17
43934;BME280;59081;42.706;23.306;2023-01-30T02:16:58;95311.84;;;-3.22;96.01
43934;BME280;59081;42.706;23.306;2023-01-30T02:19:34;95483.75;;;-2.28;97.49
43934;BME280;59081;42.706;23.306;2023-01-30T02:33:33;95379.38;;;-2.71;96.27
43934;BME280;59081;42.706;23.306;2023-01-30T02:38:52;95272.97;;;-3.53;96.94
43934;BME280;59081;42.706;23.306;2023-01-30T02:46:55;95427.44;;;-2.46;95.61
43934;BME280;59081;42.706;23.306;2023-01-30T02:49:30;95464.94;;;-2.09;95.97
43934;BME280;59081;42.706;23.306;2023-01-30T02:51:59;95375.88;;;-2.88;96.47
43934;BME280;59081;42.706;23.306;2023-01-30T02:54:26;95395.31;;;-2.66;97.07
43934;BME280;59081;42.706;23.306;2023-01-30T02:56:56;95469.13;;;-2.12;96.57
43934;BME280;59081;42.706;23.306;2023-01-30T02:59:34;95455.78;;;-2.20;96.39
43934;BME280;59081;42.706;23.306;2023-01-30T03:04:56;95474.34;;;-2.19;96.18
43934;BME280;59081;42.706;23.306;2023-01-30T03:07:49;95406.09;;;-2.66;95.88
43934;BME280;59081;42.706;23.306;2023-01-30T03:16:02;95362.16;;;-2.67;95.22
43934;BME280;59081;42.706;23.306;2023-01-30T03:18:29;95467.47;;;-2.16;95.96
43934;BME280;59081;42.706;23.306;2023-01-30T03:20:55;95359.47;;;-2.83;96.04
43934;BME280;59081;42.706;23.306;2023-01-30T03:23:20;95462.66;;;-2.23;96.32
43934;BME280;59081;42.706;23.306;2023-01-30T03:25:47;95344.06;;;-2.82;96.74
43934;BME280;59081;42.706;23.306;2023-01-30T03:28:18;95437.44;;;-2.15;95.36
43934;BME280;59081;42.706;23.306;2023-01-30T03:30:45;95281.53;;;-3.03;94.54
43934;BME280;59081;42.706;23.306;2023-01-30T03:33:11;95329.72;;;-2.86;95.03
43934;BME280;59081;42.706;23.306;2023-01-30T03:35:36;95302.50;;;-3.12;96.76
43934;BME280;59081;42.706;23.306;2023-01-30T03:38:03;95361.81;;;-2.65;96.38
43934;BME280;59081;42.706;23.306;2023-01-30T03:40:29;95217.13;;;-3.56;95.30
43934;BME280;59081;42.706;23.306;2023-01-30T03:42:54;95259.72;;;-3.30;94.56
43934;BME280;59081;42.706;23.306;2023-01-30T03:45:20;95430.47;;;-2.16;94.70
43934;BME280;59081;42.706;23.306;2023-01-30T03:47:45;95297.81;;;-3.00;94.59
43934;BME280;59081;42.706;23.306;2023-01-30T03:50:11;95378.69;;;-2.68;95.22
43934;BME280;59081;42.706;23.306;2023-01-30T03:52:36;95310.50;;;-3.00;96.41
43934;BME280;59081;42.706;23.306;2023-01-30T03:55:03;95295.25;;;-3.08;95.86
43934;BME280;59081;42.706;23.306;2023-01-30T03:57:29;95222.06;;;-3.42;94.13
43934;BME280;59081;42.706;23.306;2023-01-30T03:59:54;95279.19;;;-3.21;94.32
43934;BME280;59081;42.706;23.306;2023-01-30T04:02:20;95247.97;;;-3.37;94.50
43934;BME280;59081;42.706;23.306;2023-01-30T04:04:48;95226.22;;;-3.60;94.70
43934;BME280;59081;42.706;23.306;2023-01-30T04:07:14;95373.72;;;-2.66;95.58
43934;BME280;59081;42.706;23.306;2023-01-30T04:09:40;95424.09;;;-2.23;96.32
43934;BME280;59081;42.706;23.306;2023-01-30T04:12:05;95277.81;;;-3.14;95.76
43934;BME280;59081;42.706;23.306;2023-01-30T04:14:31;95254.69;;;-3.16;94.72
43934;BME280;59081;42.706;23.306;2023-01-30T04:16:56;95412.69;;;-2.17;94.84
43934;BME280;59081;42.706;23.306;2023-01-30T04:19:22;95399.66;;;-2.46;95.02
43934;BME280;59081;42.706;23.306;2023-01-30T04:21:47;95172.00;;;-3.90;95.68
43934;BME280;59081;42.706;23.306;2023-01-30T04:24:13;95374.59;;;-2.62;96.89
43934;BME280;59081;42.706;23.306;2023-01-30T04:26:38;95259.00;;;-3.27;96.59
43934;BME280;59081;42.706;23.306;2023-01-30T04:29:04;95234.16;;;-3.36;94.92
43934;BME280;59081;42.706;23.306;2023-01-30T04:31:30;95382.25;;;-2.49;95.29
43934;BME280;59081;42.706;23.306;2023-01-30T04:33:55;95224.66;;;-3.61;96.27
43934;BME280;59081;42.706;23.306;2023-01-30T04:36:21;95244.63;;;-3.62;97.54
43934;BME280;59081;42.706;23.306;2023-01-30T04:38:46;95349.72;;;-2.87;98.18
43934;BME280;59081;42.706;23.306;2023-01-30T04:41:12;95215.13;;;-3.59;96.31
43934;BME280;59081;42.706;23.306;2023-01-30T04:43:37;95290.50;;;-2.99;96.38
43934;BME280;59081;42.706;23.306;2023-01-30T04:46:03;95175.84;;;-3.75;96.71
43934;BME280;59081;42.706;23.306;2023-01-30T04:48:29;95236.66;;;-3.43;97.63
43934;BME280;59081;42.706;23.306;2023-01-30T04:50:55;95243.81;;;-3.35;97.62
43934;BME280;59081;42.706;23.306;2023-01-30T04:53:22;95282.31;;;-3.19;97.80
43934;BME280;59081;42.706;23.306;2023-01-30T04:55:48;95388.44;;;-2.32;97.71
43934;BME280;59081;42.706;23.306;2023-01-30T04:58:14;95251.91;;;-3.19;97.47
43934;BME280;59081;42.706;23.306;2023-01-30T05:00:40;95256.25;;;-2.83;97.18
43934;BME280;59081;42.706;23.306;2023-01-30T05:03:06;95267.53;;;-2.93;95.88
43934;BME280;59081;42.706;23.306;2023-01-30T05:05:31;95410.69;;;-2.04;95.75
43934;BME280;59081;42.706;23.306;2023-01-30T05:07:57;95401.13;;;-2.17;96.45
43934;BME280;59081;42.706;23.306;2023-01-30T05:10:23;95284.22;;;-3.03;97.04
43934;BME280;59081;42.706;23.306;2023-01-30T05:12:48;95280.41;;;-3.02;97.92
43934;BME280;59081;42.706;23.306;2023-01-30T05:15:14;95260.06;;;-3.16;97.20
43934;BME280;59081;42.706;23.306;2023-01-30T05:17:40;95230.09;;;-3.30;97.49
43934;BME280;59081;42.706;23.306;2023-01-30T05:20:07;95329.78;;;-2.35;97.59
43934;BME280;59081;42.706;23.306;2023-01-30T05:22:34;95412.78;;;-2.13;98.45
43934;BME280;59081;42.706;23.306;2023-01-30T05:24:59;95169.44;;;-3.71;98.74
43934;BME280;59081;42.706;23.306;2023-01-30T05:27:25;95409.91;;;-2.20;99.22
43934;BME280;59081;42.706;23.306;2023-01-30T05:29:50;95237.56;;;-3.39;100.00
43934;BME280;59081;42.706;23.306;2023-01-30T05:32:17;95413.84;;;-2.33;100.00
43934;BME280;59081;42.706;23.306;2023-01-30T05:34:43;95300.25;;;-2.79;100.00
43934;BME280;59081;42.706;23.306;2023-01-30T05:37:10;95275.28;;;-2.92;99.35
43934;BME280;59081;42.706;23.306;2023-01-30T05:39:36;95337.91;;;-2.67;99.89
43934;BME280;59081;42.706;23.306;2023-01-30T05:42:05;95226.25;;;-3.44;100.00
43934;BME280;59081;42.706;23.306;2023-01-30T05:44:30;95413.84;;;-2.33;100.00
43934;BME280;59081;42.706;23.306;2023-01-30T05:46:56;95328.59;;;-2.85;100.00
43934;BME280;59081;42.706;23.306;2023-01-30T05:49:22;95209.72;;;-3.74;100.00
43934;BME280;59081;42.706;23.306;2023-01-30T05:51:48;95282.84;;;-2.97;100.00
43934;BME280;59081;42.706;23.306;2023-01-30T05:54:13;95259.78;;;-3.10;100.00
43934;BME280;59081;42.706;23.306;2023-01-30T05:56:39;95250.59;;;-3.25;100.00
43934;BME280;59081;42.706;23.306;2023-01-30T05:59:05;95376.44;;;-2.51;100.00
43934;BME280;59081;42.706;23.306;2023-01-30T06:01:30;95367.31;;;-2.62;100.00
43934;BME280;59081;42.706;23.306;2023-01-30T06:03:57;95262.47;;;-3.42;100.00
43934;BME280;59081;42.706;23.306;2023-01-30T06:06:23;95348.38;;;-2.93;100.00
43934;BME280;59081;42.706;23.306;2023-01-30T06:08:54;95354.31;;;-2.72;100.00
43934;BME280;59081;42.706;23.306;2023-01-30T06:11:20;95280.75;;;-3.04;100.00
43934;BME280;59081;42.706;23.306;2023-01-30T06:13:45;95283.19;;;-3.14;100.00
43934;BME280;59081;42.706;23.306;2023-01-30T06:16:13;95416.28;;;-2.28;100.00
43934;BME280;59081;42.706;23.306;2023-01-30T06:18:39;95347.91;;;-2.67;100.00
43934;BME280;59081;42.706;23.306;2023-01-30T06:21:05;95211.72;;;-3.71;100.00
43934;BME280;59081;42.706;23.306;2023-01-30T06:23:31;95420.47;;;-2.47;100.00
43934;BME280;59081;42.706;23.306;2023-01-30T06:25:57;95320.94;;;-2.99;100.00
43934;BME280;59081;42.706;23.306;2023-01-30T06:28:23;95280.59;;;-2.95;100.00
43934;BME280;59081;42.706;23.306;2023-01-30T06:30:50;95285.47;;;-3.01;100.00
43934;BME280;59081;42.706;23.306;2023-01-30T06:33:16;95362.75;;;-2.58;100.00
43934;BME280;59081;42.706;23.306;2023-01-30T06:35:42;95397.47;;;-2.40;100.00
43934;BME280;59081;42.706;23.306;2023-01-30T06:38:08;95337.38;;;-2.88;100.00
43934;BME280;59081;42.706;23.306;2023-01-30T06:40:36;95365.34;;;-2.77;100.00
43934;BME280;59081;42.706;23.306;2023-01-30T06:43:02;95200.72;;;-3.51;100.00
43934;BME280;59081;42.706;23.306;2023-01-30T06:45:28;95329.81;;;-2.67;100.00
43934;BME280;59081;42.706;23.306;2023-01-30T06:47:55;95294.41;;;-2.97;100.00
43934;BME280;59081;42.706;23.306;2023-01-30T06:50:26;95413.25;;;-2.27;100.00
43934;BME280;59081;42.706;23.306;2023-01-30T06:52:53;95171.13;;;-3.94;100.00
43934;BME280;59081;42.706;23.306;2023-01-30T06:55:24;95293.09;;;-3.19;100.00
43934;BME280;59081;42.706;23.306;2023-01-30T06:58:00;95333.28;;;-2.98;100.00
43934;BME280;59081;42.706;23.306;2023-01-30T07:00:25;95265.47;;;-3.16;100.00
43934;BME280;59081;42.706;23.306;2023-01-30T07:02:51;95280.22;;;-3.09;100.00
43934;BME280;59081;42.706;23.306;2023-01-30T07:05:17;95323.28;;;-2.97;100.00
43934;BME280;59081;42.706;23.306;2023-01-30T07:07:42;95289.44;;;-3.26;100.00
43934;BME280;59081;42.706;23.306;2023-01-30T07:10:09;95268.53;;;-3.45;100.00
43934;BME280;59081;42.706;23.306;2023-01-30T07:12:36;95260.97;;;-3.55;100.00
43934;BME280;59081;42.706;23.306;2023-01-30T07:15:03;95181.75;;;-3.86;100.00
43934;BME280;59081;42.706;23.306;2023-01-30T07:17:29;95429.47;;;-1.92;100.00
43934;BME280;59081;42.706;23.306;2023-01-30T07:19:56;95427.41;;;-2.14;98.48
43934;BME280;59081;42.706;23.306;2023-01-30T07:22:22;95313.72;;;-2.95;99.27
43934;BME280;59081;42.706;23.306;2023-01-30T07:24:47;95278.16;;;-3.16;99.48
43934;BME280;59081;42.706;23.306;2023-01-30T07:27:13;95189.19;;;-3.95;100.00
43934;BME280;59081;42.706;23.306;2023-01-30T07:29:39;95303.69;;;-3.26;100.00
43934;BME280;59081;42.706;23.306;2023-01-30T07:32:06;95273.88;;;-3.33;100.00
43934;BME280;59081;42.706;23.306;2023-01-30T07:34:32;95236.63;;;-3.31;99.73
43934;BME280;59081;42.706;23.306;2023-01-30T07:36:58;95373.47;;;-2.46;98.47
43934;BME280;59081;42.706;23.306;2023-01-30T07:39:24;95434.03;;;-2.27;97.82
43934;BME280;59081;42.706;23.306;2023-01-30T07:41:49;95288.06;;;-3.20;98.93
43934;BME280;59081;42.706;23.306;2023-01-30T07:44:15;95296.22;;;-2.54;99.34
43934;BME280;59081;42.706;23.306;2023-01-30T07:46:40;95238.34;;;-3.23;94.34
43934;BME280;59081;42.706;23.306;2023-01-30T07:49:08;95358.91;;;-3.04;98.38
43934;BME280;59081;42.706;23.306;2023-01-30T07:51:34;95441.16;;;-2.51;100.00
43934;BME280;59081;42.706;23.306;2023-01-30T07:53:59;95376.41;;;-2.82;100.00
43934;BME280;59081;42.706;23.306;2023-01-30T07:56:26;95221.16;;;-3.77;100.00
43934;BME280;59081;42.706;23.306;2023-01-30T07:58:54;95319.63;;;-3.05;100.00
43934;BME280;59081;42.706;23.306;2023-01-30T08:01:20;95287.28;;;-2.89;99.43
43934;BME280;59081;42.706;23.306;2023-01-30T08:03:46;95334.72;;;-2.37;97.66
43934;BME280;59081;42.706;23.306;2023-01-30T08:06:14;95348.44;;;-2.11;96.90
43934;BME280;59081;42.706;23.306;2023-01-30T08:08:40;95419.59;;;-1.49;96.44
43934;BME280;59081;42.706;23.306;2023-01-30T08:11:05;95317.31;;;-2.40;97.41
43934;BME280;59081;42.706;23.306;2023-01-30T08:13:31;95284.16;;;-2.60;96.00
43934;BME280;59081;42.706;23.306;2023-01-30T08:16:01;95261.44;;;-2.90;96.57
43934;BME280;59081;42.706;23.306;2023-01-30T08:18:31;95250.34;;;-3.04;96.48
43934;BME280;59081;42.706;23.306;2023-01-30T08:20:57;95270.50;;;-2.98;99.07
43934;BME280;59081;42.706;23.306;2023-01-30T08:23:23;95369.53;;;-2.32;98.42
43934;BME280;59081;42.706;23.306;2023-01-30T08:25:48;95353.38;;;-1.97;97.44
43934;BME280;59081;42.706;23.306;2023-01-30T08:28:14;95224.94;;;-3.03;95.15
43934;BME280;59081;42.706;23.306;2023-01-30T08:30:40;95409.50;;;-1.87;95.71
43934;BME280;59081;42.706;23.306;2023-01-30T08:33:06;95330.75;;;-2.43;96.88
43934;BME280;59081;42.706;23.306;2023-01-30T08:35:31;95394.56;;;-2.00;97.63
43934;BME280;59081;42.706;23.306;2023-01-30T08:37:57;95279.19;;;-2.89;98.42
43934;BME280;59081;42.706;23.306;2023-01-30T08:40:23;95387.59;;;-2.01;98.37
43934;BME280;59081;42.706;23.306;2023-01-30T08:42:49;95349.69;;;-1.89;98.63
43934;BME280;59081;42.706;23.306;2023-01-30T08:45:14;95299.66;;;-2.37;96.45
43934;BME280;59081;42.706;23.306;2023-01-30T08:47:40;95355.84;;;-2.08;94.76
43934;BME280;59081;42.706;23.306;2023-01-30T08:50:06;95338.78;;;-2.12;95.19
43934;BME280;59081;42.706;23.306;2023-01-30T08:52:32;95270.75;;;-2.72;94.68
43934;BME280;59081;42.706;23.306;2023-01-30T08:54:58;95191.94;;;-3.16;95.56
43934;BME280;59081;42.706;23.306;2023-01-30T08:57:24;95261.78;;;-2.60;94.12
43934;BME280;59081;42.706;23.306;2023-01-30T08:59:49;95272.16;;;-2.27;93.46
43934;BME280;59081;42.706;23.306;2023-01-30T09:02:17;95316.06;;;-2.11;93.12
43934;BME280;59081;42.706;23.306;2023-01-30T09:04:43;95271.03;;;-2.42;92.19
43934;BME280;59081;42.706;23.306;2023-01-30T09:07:08;95207.97;;;-2.88;92.81
43934;BME280;59081;42.706;23.306;2023-01-30T09:09:34;95261.31;;;-2.47;93.21
43934;BME280;59081;42.706;23.306;2023-01-30T09:12:00;95244.66;;;-2.68;93.68
43934;BME280;59081;42.706;23.306;2023-01-30T09:14:26;95381.13;;;-1.81;92.46
43934;BME280;59081;42.706;23.306;2023-01-30T09:16:51;95221.81;;;-2.55;91.72
43934;BME280;59081;42.706;23.306;2023-01-30T09:19:28;95242.38;;;-2.31;91.82
43934;BME280;59081;42.706;23.306;2023-01-30T09:21:54;95296.88;;;-2.06;92.93
43934;BME280;59081;42.706;23.306;2023-01-30T09:24:21;95365.72;;;-1.61;92.20
43934;BME280;59081;42.706;23.306;2023-01-30T09:26:51;95147.16;;;-3.05;92.56
43934;BME280;59081;42.706;23.306;2023-01-30T09:29:18;95229.34;;;-2.64;93.56
43934;BME280;59081;42.706;23.306;2023-01-30T09:31:48;95124.31;;;-3.27;93.35
43934;BME280;59081;42.706;23.306;2023-01-30T09:34:13;95229.53;;;-2.37;92.97
43934;BME280;59081;42.706;23.306;2023-01-30T09:36:39;95285.06;;;-2.17;93.25
43934;BME280;59081;42.706;23.306;2023-01-30T09:39:05;95353.88;;;-1.72;93.39
43934;BME280;59081;42.706;23.306;2023-01-30T09:46:49;95352.75;;;-1.71;93.28
43934;BME280;59081;42.706;23.306;2023-01-30T09:49:25;95300.25;;;-1.93;93.61
43934;BME280;59081;42.706;23.306;2023-01-30T09:52:13;95225.34;;;-2.16;91.32
43934;BME280;59081;42.706;23.306;2023-01-30T09:54:43;95338.97;;;-1.66;92.15
43934;BME280;59081;42.706;23.306;2023-01-30T09:57:21;95202.81;;;-2.62;92.66
43934;BME280;59081;42.706;23.306;2023-01-30T10:02:38;95322.25;;;-1.72;93.07
43934;BME280;59081;42.706;23.306;2023-01-30T10:05:06;95128.31;;;-3.21;93.22
43934;BME280;59081;42.706;23.306;2023-01-30T10:16:20;95237.06;;;-2.27;91.60
43934;BME280;59081;42.706;23.306;2023-01-30T10:21:44;95285.75;;;-1.85;92.11
43934;BME280;59081;42.706;23.306;2023-01-30T10:24:36;95291.41;;;-1.52;89.76
43934;BME280;59081;42.706;23.306;2023-01-30T10:27:06;95221.38;;;-1.83;87.09
43934;BME280;59081;42.706;23.306;2023-01-30T10:29:37;95161.09;;;-2.29;87.59
43934;BME280;59081;42.706;23.306;2023-01-30T10:32:14;95275.09;;;-1.59;87.73
43934;BME280;59081;42.706;23.306;2023-01-30T10:34:47;95182.25;;;-2.31;87.90
43934;BME280;59081;42.706;23.306;2023-01-30T10:37:52;95129.25;;;-2.59;87.92
43934;BME280;59081;42.706;23.306;2023-01-30T10:40:28;95134.81;;;-2.52;89.71
43934;BME280;59081;42.706;23.306;2023-01-30T10:46:03;95249.28;;;-1.56;86.40
43934;BME280;59081;42.706;23.306;2023-01-30T10:51:42;95228.06;;;-1.54;88.26
43934;BME280;59081;42.706;23.306;2023-01-30T10:57:04;95225.00;;;-1.76;85.95
43934;BME280;59081;42.706;23.306;2023-01-30T10:59:47;95221.88;;;-1.97;88.32
43934;BME280;59081;42.706;23.306;2023-01-30T11:05:01;95142.63;;;-2.27;89.19
43934;BME280;59081;42.706;23.306;2023-01-30T11:07:31;95208.56;;;-1.67;88.82
43934;BME280;59081;42.706;23.306;2023-01-30T11:09:58;95033.63;;;-2.46;86.83
43934;BME280;59081;42.706;23.306;2023-01-30T11:12:24;95172.13;;;-1.31;85.82
43934;BME280;59081;42.706;23.306;2023-01-30T11:17:18;95142.63;;;-1.17;83.21
43934;BME280;59081;42.706;23.306;2023-01-30T11:19:45;95036.97;;;-2.06;82.99
43934;BME280;59081;42.706;23.306;2023-01-30T11:22:18;95068.13;;;-2.13;83.27
43934;BME280;59081;42.706;23.306;2023-01-30T11:24:45;94954.88;;;-2.74;84.59
43934;BME280;59081;42.706;23.306;2023-01-30T11:27:17;95089.34;;;-1.88;84.45
43934;BME280;59081;42.706;23.306;2023-01-30T11:29:46;95164.22;;;-1.43;85.11
43934;BME280;59081;42.706;23.306;2023-01-30T11:32:14;95097.25;;;-1.80;84.85
43934;BME280;59081;42.706;23.306;2023-01-30T11:35:03;95029.38;;;-2.01;84.23
43934;BME280;59081;42.706;23.306;2023-01-30T11:37:36;94979.06;;;-2.35;84.68
43934;BME280;59081;42.706;23.306;2023-01-30T11:42:48;94967.72;;;-2.22;84.74
43934;BME280;59081;42.706;23.306;2023-01-30T11:45:16;95136.94;;;-1.34;84.88
43934;BME280;59081;42.706;23.306;2023-01-30T11:47:52;95068.03;;;-1.74;85.00
43934;BME280;59081;42.706;23.306;2023-01-30T11:50:22;94990.31;;;-2.07;83.72
43934;BME280;59081;42.706;23.306;2023-01-30T11:52:51;95027.88;;;-1.49;82.34
43934;BME280;59081;42.706;23.306;2023-01-30T11:55:18;95024.91;;;-1.67;83.41
43934;BME280;59081;42.706;23.306;2023-01-30T11:57:55;94877.31;;;-2.61;84.08
43934;BME280;59081;42.706;23.306;2023-01-30T12:00:28;94979.88;;;-1.86;83.25
43934;BME280;59081;42.706;23.306;2023-01-30T12:03:04;95017.59;;;-1.66;83.51
43934;BME280;59081;42.706;23.306;2023-01-30T12:05:30;95087.50;;;-1.12;83.12
43934;BME280;59081;42.706;23.306;2023-01-30T12:10:55;95014.91;;;-1.40;81.46
43934;BME280;59081;42.706;23.306;2023-01-30T12:13:30;94958.06;;;-2.00;82.37
43934;BME280;59081;42.706;23.306;2023-01-30T12:18:39;94976.75;;;-1.88;82.82
43934;BME280;59081;42.706;23.306;2023-01-30T12:21:20;94935.34;;;-2.22;84.48
43934;BME280;59081;42.706;23.306;2023-01-30T12:26:42;95059.25;;;-0.88;81.06
43934;BME280;59081;42.706;23.306;2023-01-30T12:34:38;94837.00;;;-2.51;80.97
43934;BME280;59081;42.706;23.306;2023-01-30T12:42:48;95027.63;;;-0.51;78.55
43934;BME280;59081;42.706;23.306;2023-01-30T12:45:24;94958.91;;;-1.13;79.38
43934;BME280;59081;42.706;23.306;2023-01-30T12:50:28;94937.88;;;-1.27;80.23
43934;BME280;59081;42.706;23.306;2023-01-30T12:58:20;95012.41;;;-0.62;80.06
43934;BME280;59081;42.706;23.306;2023-01-30T13:01:03;94935.88;;;-1.00;79.78
43934;BME280;59081;42.706;23.306;2023-01-30T13:17:31;94922.13;;;-1.21;80.02
43934;BME280;59081;42.706;23.306;2023-01-30T13:22:42;94954.69;;;-1.11;80.51
43934;BME280;59081;42.706;23.306;2023-01-30T13:25:19;94997.84;;;-0.84;81.41
43934;BME280;59081;42.706;23.306;2023-01-30T13:27:59;94927.97;;;-1.46;81.49
43934;BME280;59081;42.706;23.306;2023-01-30T13:30:28;94868.19;;;-1.74;81.78
43934;BME280;59081;42.706;23.306;2023-01-30T13:33:00;94891.38;;;-1.10;78.97
43934;BME280;59081;42.706;23.306;2023-01-30T13:35:36;94843.41;;;-1.50;78.56
43934;BME280;59081;42.706;23.306;2023-01-30T13:38:06;94978.56;;;-0.83;80.57
43934;BME280;59081;42.706;23.306;2023-01-30T13:40:40;94728.59;;;-2.33;78.85
43934;BME280;59081;42.706;23.306;2023-01-30T13:45:49;94965.38;;;-0.88;80.18
43934;BME280;59081;42.706;23.306;2023-01-30T13:48:39;94922.34;;;-1.00;80.25
43934;BME280;59081;42.706;23.306;2023-01-30T13:53:59;94930.47;;;-1.00;79.44
43934;BME280;59081;42.706;23.306;2023-01-30T14:07:20;94957.41;;;-1.37;82.33
43934;BME280;59081;42.706;23.306;2023-01-30T14:12:43;94965.31;;;-1.25;82.04
43934;BME280;59081;42.706;23.306;2023-01-30T14:18:00;94959.63;;;-0.83;80.26
43934;BME280;59081;42.706;23.306;2023-01-30T14:20:35;94823.16;;;-1.66;79.67
43934;BME280;59081;42.706;23.306;2023-01-30T14:23:31;94899.31;;;-1.24;80.12
43934;BME280;59081;42.706;23.306;2023-01-30T14:25:57;94967.59;;;-0.97;81.31
43934;BME280;59081;42.706;23.306;2023-01-30T14:38:24;94891.50;;;-1.62;81.54
43934;BME280;59081;42.706;23.306;2023-01-30T14:45:58;94885.38;;;-1.59;81.91
43934;BME280;59081;42.706;23.306;2023-01-30T14:48:27;94940.69;;;-1.16;81.42
43934;BME280;59081;42.706;23.306;2023-01-30T14:56:59;94933.19;;;-1.30;82.15
43934;BME280;59081;42.706;23.306;2023-01-30T14:59:38;94884.09;;;-1.39;81.21
43934;BME280;59081;42.706;23.306;2023-01-30T15:04:44;94799.22;;;-2.28;82.33
43934;BME280;59081;42.706;23.306;2023-01-30T15:07:18;94801.84;;;-2.31;82.35
43934;BME280;59081;42.706;23.306;2023-01-30T15:21:14;94933.63;;;-1.58;84.21
43934;BME280;59081;42.706;23.306;2023-01-30T15:26:52;94852.28;;;-2.35;83.85
43934;BME280;59081;42.706;23.306;2023-01-30T15:32:12;94949.03;;;-1.58;84.85
43934;BME280;59081;42.706;23.306;2023-01-30T15:34:48;94884.06;;;-2.25;85.29
43934;BME280;59081;42.706;23.306;2023-01-30T15:37:32;94879.72;;;-2.30;84.00
43934;BME280;59081;42.706;23.306;2023-01-30T15:42:38;94816.72;;;-2.90;84.66
43934;BME280;59081;42.706;23.306;2023-01-30T15:50:53;94782.66;;;-2.79;83.55
43934;BME280;59081;42.706;23.306;2023-01-30T15:53:24;94942.41;;;-1.91;84.56
43934;BME280;59081;42.706;23.306;2023-01-30T15:55:51;94948.03;;;-1.99;85.19
43934;BME280;59081;42.706;23.306;2023-01-30T15:58:20;94949.25;;;-1.97;84.61